Time;durP1;ratioP1;P1;durP2;ratioP2;P2;SDS_P1;SDS_P2;PMS_P1;PMS_P2;Temp;Humidity;BMP_temperature;BMP_pressure;BME280_temperature;BME280_humidity;BME280_pressure;Samples;Min_cycle;Max_cycle;Signal;HPM_P1;HPM_P2
2021/04/16 00:01:50;;;;;;;13.40;12.30;;;2.60;99.90;;;;;;4973395;28;20503;-68
2021/04/16 00:04:16;;;;;;;12.80;12.00;;;2.50;99.90;;;;;;4972942;28;20986;-68
2021/04/16 00:06:42;;;;;;;13.30;12.30;;;2.40;99.90;;;;;;4973192;28;20453;-68
2021/04/16 00:09:08;;;;;;;13.10;11.93;;;2.50;99.90;;;;;;4973398;28;20451;-68
2021/04/16 00:11:35;;;;;;;13.83;12.60;;;2.40;99.90;;;;;;4972715;28;20484;-68
2021/04/16 00:14:03;;;;;;;13.37;12.37;;;2.40;99.90;;;;;;4973428;28;20461;-68
2021/04/16 00:16:30;;;;;;;11.47;10.70;;;2.50;99.90;;;;;;4973196;28;20454;-68
2021/04/16 00:18:57;;;;;;;12.97;11.70;;;2.40;99.90;;;;;;4973081;28;20452;-69
2021/04/16 00:21:24;;;;;;;13.30;12.50;;;2.40;99.90;;;;;;4973257;28;20825;-68
2021/04/16 00:23:50;;;;;;;13.93;12.83;;;2.30;99.90;;;;;;4973223;28;20459;-68
2021/04/16 00:26:16;;;;;;;12.60;11.80;;;2.20;99.90;;;;;;4972629;28;20846;-68
2021/04/16 00:28:43;;;;;;;13.07;12.17;;;2.00;99.90;;;;;;4972802;28;20456;-68
2021/04/16 00:31:14;;;;;;;13.07;12.17;;;1.90;99.90;;;;;;4972792;28;20495;-69
2021/04/16 00:33:40;;;;;;;13.63;12.70;;;1.70;99.90;;;;;;4972607;28;20459;-67
2021/04/16 00:36:07;;;;;;;13.87;12.77;;;1.60;99.90;;;;;;4972833;28;20460;-67
2021/04/16 00:38:33;;;;;;;13.00;11.93;;;1.50;99.90;;;;;;4972640;28;20826;-68
2021/04/16 00:41:02;;;;;;;13.07;12.30;;;1.50;99.90;;;;;;4972478;28;20444;-67
2021/04/16 00:43:30;;;;;;;14.70;13.67;;;1.60;99.90;;;;;;4972587;28;20459;-67
2021/04/16 00:46:14;;;;;;;13.80;12.93;;;1.60;99.90;;;;;;4972528;28;20463;-68
2021/04/16 00:48:43;;;;;;;14.17;13.17;;;1.60;99.90;;;;;;4972589;28;20484;-69
2021/04/16 00:51:16;;;;;;;13.10;12.07;;;1.40;99.90;;;;;;4972553;28;20485;-69
2021/04/16 00:53:42;;;;;;;15.77;12.93;;;1.40;99.90;;;;;;4972718;28;21015;-67
2021/04/16 00:56:08;;;;;;;13.63;12.60;;;1.40;99.90;;;;;;4972629;28;20532;-69
2021/04/16 00:58:36;;;;;;;16.40;13.00;;;1.30;99.90;;;;;;4972110;28;20514;-69
2021/04/16 01:01:04;;;;;;;15.03;13.53;;;1.30;99.90;;;;;;4972391;28;20455;-68
2021/04/16 03:49:06;;;;;;;16.97;15.60;;;0.30;99.90;;;;;;5239639;23;20502;-68
2021/04/16 03:51:47;;;;;;;14.27;13.27;;;0.30;99.90;;;;;;4960195;28;20499;-67
2021/04/16 03:54:13;;;;;;;14.63;13.73;;;0.30;99.90;;;;;;4953229;28;20854;-67
2021/04/16 03:56:39;;;;;;;18.30;16.70;;;0.20;99.90;;;;;;4953021;29;20461;-67
2021/04/16 03:59:06;;;;;;;14.77;13.60;;;0.20;99.90;;;;;;4953501;29;20463;-68
2021/04/16 04:01:32;;;;;;;16.33;15.20;;;0.20;99.90;;;;;;4953479;29;20912;-69
2021/04/16 04:03:58;;;;;;;16.80;15.50;;;0.20;99.90;;;;;;4953154;29;20460;-68
2021/04/16 04:06:25;;;;;;;15.10;14.00;;;0.30;99.90;;;;;;4953204;29;20881;-68
2021/04/16 04:08:51;;;;;;;14.43;13.53;;;0.30;99.90;;;;;;4952983;28;20464;-68
2021/04/16 04:11:17;;;;;;;14.67;13.67;;;0.30;99.90;;;;;;4953223;29;20496;-69
2021/04/16 04:13:43;;;;;;;15.53;14.07;;;0.20;99.90;;;;;;4953287;29;20812;-68
2021/04/16 04:16:10;;;;;;;15.30;14.30;;;0.30;99.90;;;;;;4953125;29;20449;-69
2021/04/16 04:18:36;;;;;;;14.87;13.93;;;0.40;99.90;;;;;;4953201;29;20457;-69
2021/04/16 04:21:03;;;;;;;18.77;17.27;;;0.40;99.90;;;;;;4952706;29;20476;-68
2021/04/16 04:23:30;;;;;;;15.50;14.30;;;0.40;99.90;;;;;;4952900;29;20449;-69
2021/04/16 04:25:56;;;;;;;17.37;16.07;;;0.40;99.90;;;;;;4952901;29;20496;-70
2021/04/16 04:28:23;;;;;;;17.80;16.17;;;0.50;99.90;;;;;;4953271;29;20454;-69
2021/04/16 04:30:49;;;;;;;14.53;13.37;;;0.60;99.90;;;;;;4952606;29;20997;-70
2021/04/16 04:33:15;;;;;;;13.70;12.70;;;0.70;99.90;;;;;;4952804;29;20819;-70
2021/04/16 04:35:42;;;;;;;15.33;14.30;;;0.70;99.90;;;;;;4952743;29;20460;-70
2021/04/16 04:38:08;;;;;;;16.57;15.03;;;0.80;99.90;;;;;;4952722;29;20449;-70
2021/04/16 04:40:36;;;;;;;15.40;14.20;;;0.80;99.90;;;;;;4952555;29;20452;-70
2021/04/16 04:43:02;;;;;;;15.07;13.97;;;0.90;99.90;;;;;;4952870;29;20464;-69
2021/04/16 04:45:28;;;;;;;14.90;13.70;;;0.90;99.90;;;;;;4952751;29;20970;-69
2021/04/16 04:47:55;;;;;;;14.47;13.47;;;0.90;99.90;;;;;;4952157;29;20479;-69
2021/04/16 04:50:25;;;;;;;14.20;13.20;;;0.90;99.90;;;;;;4968807;28;20488;-69
2021/04/16 04:52:52;;;;;;;17.93;15.77;;;1.00;99.90;;;;;;4971820;28;20498;-69
2021/04/16 04:55:21;;;;;;;15.83;14.80;;;1.00;99.90;;;;;;4972046;28;20829;-70
2021/04/16 04:57:48;;;;;;;15.50;14.30;;;1.00;99.90;;;;;;4972038;28;20449;-69
2021/04/16 05:00:16;;;;;;;15.73;14.63;;;1.10;99.90;;;;;;4971730;28;20454;-69
2021/04/16 05:02:42;;;;;;;14.03;12.90;;;1.20;99.90;;;;;;4971792;28;20459;-68
2021/04/16 05:05:10;;;;;;;15.63;14.53;;;1.40;99.90;;;;;;4971473;28;20973;-68
2021/04/16 05:07:36;;;;;;;14.90;13.50;;;1.50;99.90;;;;;;4971721;28;20451;-69
2021/04/16 05:10:04;;;;;;;15.40;14.43;;;1.60;99.90;;;;;;4972130;28;20467;-69
2021/04/16 05:12:30;;;;;;;15.17;14.07;;;1.60;99.90;;;;;;4971603;28;20491;-70
2021/04/16 05:14:57;;;;;;;16.03;14.90;;;1.70;99.90;;;;;;4971350;28;20957;-69
2021/04/16 05:17:24;;;;;;;14.53;13.57;;;1.80;99.90;;;;;;4971531;28;20467;-69
2021/04/16 05:19:50;;;;;;;15.00;13.77;;;1.80;99.90;;;;;;4971652;28;20456;-69
2021/04/16 05:22:17;;;;;;;15.13;13.73;;;1.90;99.90;;;;;;4975167;28;20542;-69
2021/04/16 05:24:43;;;;;;;14.93;13.93;;;2.00;99.90;;;;;;4975515;28;20817;-69
2021/04/16 05:27:11;;;;;;;14.43;13.43;;;2.00;99.90;;;;;;4975272;28;20501;-68
2021/04/16 05:29:38;;;;;;;16.40;14.80;;;2.10;99.90;;;;;;4975258;28;20459;-69
2021/04/16 05:32:06;;;;;;;13.30;12.53;;;2.10;99.90;;;;;;4975375;28;20487;-69
2021/04/16 05:34:32;;;;;;;15.70;14.40;;;2.20;99.90;;;;;;4975507;28;20456;-68
2021/04/16 05:36:59;;;;;;;14.00;12.80;;;2.30;99.90;;;;;;4975297;28;20490;-69
2021/04/16 05:39:25;;;;;;;15.23;14.13;;;2.40;99.90;;;;;;4975266;28;20524;-69
2021/04/16 05:41:51;;;;;;;13.37;12.37;;;2.60;99.90;;;;;;4975407;28;20866;-69
2021/04/16 05:44:18;;;;;;;14.37;13.03;;;2.80;99.90;;;;;;4975340;28;20462;-71
2021/04/16 05:46:44;;;;;;;14.17;13.17;;;2.90;99.90;;;;;;4975094;28;20475;-70
2021/04/16 05:49:11;;;;;;;14.93;13.93;;;3.00;99.90;;;;;;4975429;28;20682;-71
2021/04/16 05:51:38;;;;;;;15.13;13.93;;;3.20;99.90;;;;;;4975877;28;21004;-70
2021/04/16 05:54:05;;;;;;;14.70;13.50;;;3.30;99.90;;;;;;4976126;28;20460;-69
2021/04/16 05:56:32;;;;;;;15.73;14.73;;;3.30;99.90;;;;;;4976615;28;20466;-70
2021/04/16 05:58:59;;;;;;;15.07;14.00;;;3.40;99.90;;;;;;4975729;28;20462;-74
2021/04/16 06:01:25;;;;;;;15.30;14.30;;;3.60;99.90;;;;;;4973716;28;20530;-73
2021/04/16 06:03:51;;;;;;;13.83;13.00;;;3.80;99.90;;;;;;4975691;28;20462;-73
2021/04/16 06:06:18;;;;;;;15.67;14.47;;;3.80;99.90;;;;;;4975229;28;20455;-74
2021/04/16 06:08:44;;;;;;;14.73;13.60;;;3.90;99.90;;;;;;4974761;28;20840;-73
2021/04/16 06:11:12;;;;;;;14.07;12.90;;;4.10;99.90;;;;;;4972550;28;20997;-74
2021/04/16 06:13:39;;;;;;;13.63;12.83;;;4.40;99.90;;;;;;4974127;28;21027;-74
2021/04/16 06:16:07;;;;;;;12.67;11.97;;;4.70;99.90;;;;;;4974367;28;20482;-74
2021/04/16 06:18:33;;;;;;;14.27;13.27;;;5.00;99.90;;;;;;4974419;28;20452;-74
2021/04/16 06:21:00;;;;;;;13.93;13.13;;;5.40;99.90;;;;;;4974375;28;20968;-74
2021/04/16 06:23:27;;;;;;;14.60;13.70;;;5.90;99.90;;;;;;4974291;28;20463;-74
2021/04/16 06:25:53;;;;;;;13.07;12.33;;;6.50;99.90;;;;;;4974381;28;20461;-75
2021/04/16 06:28:20;;;;;;;13.60;12.70;;;6.60;99.90;;;;;;4974358;28;20513;-74
2021/04/16 06:30:46;;;;;;;14.73;13.60;;;6.80;99.90;;;;;;4974356;28;20483;-75
2021/04/16 06:33:19;;;;;;;14.93;13.93;;;7.30;99.90;;;;;;4973888;28;20531;-74
2021/04/16 06:35:49;;;;;;;13.43;12.70;;;7.80;99.10;;;;;;4974032;28;20872;-74
2021/04/16 06:38:18;;;;;;;15.60;14.17;;;8.40;98.10;;;;;;4973860;28;20452;-75
2021/04/16 06:40:48;;;;;;;12.90;12.10;;;8.90;96.70;;;;;;4974134;28;20451;-75
2021/04/16 06:43:14;;;;;;;14.40;13.50;;;9.70;96.30;;;;;;4973513;28;20965;-73
2021/04/16 06:45:41;;;;;;;14.60;13.70;;;10.20;94.10;;;;;;4973997;28;20447;-74
2021/04/16 06:48:09;;;;;;;14.13;13.33;;;10.70;92.20;;;;;;4975006;28;20481;-76
2021/04/16 06:50:37;;;;;;;14.33;13.43;;;11.10;91.50;;;;;;4989738;28;20837;-76
2021/04/16 06:53:10;;;;;;;13.93;12.70;;;11.30;90.70;;;;;;4993621;28;20979;-76
2021/04/16 06:55:49;;;;;;;12.93;12.30;;;11.80;90.50;;;;;;4985976;28;20475;-74
2021/04/16 06:58:20;;;;;;;13.90;13.20;;;12.50;88.50;;;;;;4974330;28;20455;-75
2021/04/16 07:00:49;;;;;;;13.90;12.83;;;12.60;83.70;;;;;;4992941;28;20450;-75
2021/04/16 07:03:23;;;;;;;14.00;13.30;;;11.60;86.10;;;;;;4988892;28;20448;-75
2021/04/16 07:05:52;;;;;;;13.87;13.00;;;11.40;88.50;;;;;;4981728;28;20624;-75
2021/04/16 07:08:28;;;;;;;14.27;13.37;;;10.60;90.30;;;;;;4993475;28;20458;-75
2021/04/16 07:10:58;;;;;;;15.03;14.20;;;10.10;90.90;;;;;;4993109;28;20525;-76
2021/04/16 07:13:32;;;;;;;12.60;12.00;;;9.80;93.10;;;;;;4975706;28;20463;-74
2021/04/16 07:15:58;;;;;;;15.50;14.67;;;9.20;93.40;;;;;;4974047;28;20486;-74
2021/04/16 07:18:29;;;;;;;13.70;13.00;;;9.50;94.30;;;;;;4973826;28;20537;-74
2021/04/16 07:20:57;;;;;;;13.80;13.03;;;9.10;94.40;;;;;;4973654;28;20493;-74
2021/04/16 07:23:24;;;;;;;12.53;11.83;;;9.00;94.60;;;;;;4985443;28;20448;-74
2021/04/16 07:26:08;;;;;;;13.43;12.63;;;8.80;94.80;;;;;;4993207;28;20454;-74
2021/04/16 07:28:47;;;;;;;12.53;11.83;;;8.40;96.10;;;;;;4990917;28;20464;-74
2021/04/16 07:31:46;;;;;;;13.23;12.30;;;8.50;96.10;;;;;;4973592;28;20491;-74
2021/04/16 07:34:35;;;;;;;13.03;12.17;;;8.30;96.30;;;;;;4973453;28;20459;-74
2021/04/16 07:37:12;;;;;;;12.60;11.77;;;8.40;96.50;;;;;;4969205;28;20467;-74
2021/04/16 07:39:44;;;;;;;12.70;12.00;;;8.40;96.40;;;;;;4973350;28;20439;-74
2021/04/16 07:42:22;;;;;;;12.00;11.40;;;8.20;97.30;;;;;;4973292;28;20448;-75
2021/04/16 07:45:06;;;;;;;12.60;11.90;;;8.00;97.30;;;;;;4972799;28;20960;-74
2021/04/16 07:47:34;;;;;;;13.43;12.67;;;7.80;98.00;;;;;;4973311;28;20481;-73
2021/04/16 07:50:03;;;;;;;12.73;12.03;;;7.70;98.20;;;;;;4987537;28;20474;-74
2021/04/16 07:52:35;;;;;;;12.80;12.00;;;7.80;98.20;;;;;;4992514;28;20529;-73
2021/04/16 07:55:13;;;;;;;13.67;12.87;;;7.60;98.60;;;;;;4992609;28;20485;-73
2021/04/16 07:57:42;;;;;;;13.20;12.40;;;7.20;99.10;;;;;;4992461;28;20949;-73
2021/04/16 08:00:24;;;;;;;12.30;11.70;;;6.90;99.90;;;;;;4992393;28;20461;-73
2021/04/16 08:02:54;;;;;;;13.13;12.23;;;6.70;99.90;;;;;;4988781;28;20443;-73
2021/04/16 08:05:32;;;;;;;13.13;12.43;;;6.70;99.90;;;;;;4973048;28;20953;-73
2021/04/16 08:08:13;;;;;;;13.30;12.60;;;6.50;99.90;;;;;;4972905;28;20513;-73
2021/04/16 08:10:40;;;;;;;14.27;13.30;;;6.40;99.90;;;;;;4972778;28;20456;-74
2021/04/16 08:13:10;;;;;;;13.07;12.00;;;6.60;99.90;;;;;;4972844;28;20456;-73
2021/04/16 08:15:37;;;;;;;13.40;12.50;;;6.70;99.90;;;;;;4972751;28;20467;-74
2021/04/16 08:18:13;;;;;;;13.27;12.63;;;6.90;99.90;;;;;;4972712;28;20456;-73
2021/04/16 08:20:54;;;;;;;13.77;12.87;;;6.90;99.90;;;;;;4972707;28;20463;-73
2021/04/16 08:23:21;;;;;;;12.70;11.90;;;6.70;99.90;;;;;;4972867;28;20458;-73
2021/04/16 08:25:54;;;;;;;12.93;12.23;;;7.00;99.90;;;;;;4972575;28;20953;-74
2021/04/16 08:28:25;;;;;;;12.70;12.00;;;7.20;99.90;;;;;;4972590;28;20532;-73
2021/04/16 08:30:59;;;;;;;14.10;13.30;;;7.30;99.90;;;;;;4987597;28;20447;-73
2021/04/16 08:33:30;;;;;;;14.17;13.27;;;7.30;99.90;;;;;;4991622;28;20824;-73
2021/04/16 08:36:05;;;;;;;12.60;11.90;;;7.20;99.90;;;;;;4991830;28;20862;-73
2021/04/16 08:38:45;;;;;;;13.67;12.93;;;7.40;99.90;;;;;;4991725;28;20557;-73
2021/04/16 08:41:13;;;;;;;12.50;11.70;;;7.40;99.90;;;;;;4991705;28;20473;-73
2021/04/16 08:43:42;;;;;;;13.50;12.60;;;7.80;99.90;;;;;;4991517;28;20454;-73
2021/04/16 08:46:26;;;;;;;13.40;12.60;;;8.10;99.90;;;;;;4991358;28;20513;-75
2021/04/16 08:48:55;;;;;;;13.30;12.60;;;7.80;99.50;;;;;;4991271;28;20496;-72
2021/04/16 08:51:28;;;;;;;12.30;11.60;;;7.50;99.90;;;;;;4991289;28;20492;-75
2021/04/16 08:54:05;;;;;;;12.77;11.90;;;7.40;99.90;;;;;;4991605;28;20457;-73
2021/04/16 08:56:36;;;;;;;13.00;12.00;;;7.60;99.90;;;;;;4990179;28;20489;-74
2021/04/16 08:59:14;;;;;;;12.73;12.00;;;8.20;99.90;;;;;;4991518;28;20457;-74
2021/04/16 09:01:48;;;;;;;13.20;12.50;;;8.50;99.00;;;;;;4991675;28;20481;-74
2021/04/16 09:04:22;;;;;;;13.20;12.50;;;8.70;98.30;;;;;;4991235;28;20489;-73
2021/04/16 09:06:52;;;;;;;12.20;11.60;;;9.00;97.40;;;;;;4991602;28;20548;-74
2021/04/16 09:09:41;;;;;;;13.17;12.37;;;9.40;97.20;;;;;;4991401;28;20822;-73
2021/04/16 09:12:07;;;;;;;12.50;11.80;;;9.90;96.60;;;;;;4991193;28;20494;-74
2021/04/16 09:14:55;;;;;;;13.83;13.13;;;10.10;95.20;;;;;;4991207;28;20454;-73
2021/04/16 09:18:05;;;;;;;13.23;12.53;;;10.70;93.80;;;;;;4991266;28;20897;-73
2021/04/16 09:21:05;;;;;;;13.70;13.00;;;10.00;93.40;;;;;;4991476;28;20491;-74
2021/04/16 09:23:55;;;;;;;13.23;12.53;;;9.20;95.70;;;;;;4991180;28;20451;-73
2021/04/16 09:26:55;;;;;;;12.10;11.50;;;9.60;95.20;;;;;;4990988;28;20451;-74
2021/04/16 09:29:39;;;;;;;12.80;12.10;;;10.70;92.40;;;;;;4987854;28;20465;-73
2021/04/16 09:32:46;;;;;;;10.90;10.30;;;11.30;90.90;;;;;;4971463;28;20494;-74
2021/04/16 09:35:45;;;;;;;11.87;11.33;;;11.60;89.90;;;;;;4971488;28;20490;-75
2021/04/16 09:38:34;;;;;;;12.70;12.10;;;12.10;87.00;;;;;;4971679;28;20525;-74
2021/04/16 09:41:09;;;;;;;12.63;12.03;;;12.30;86.20;;;;;;4971865;28;20456;-74
2021/04/16 09:43:37;;;;;;;11.43;10.93;;;12.10;83.90;;;;;;4971501;28;20529;-74
2021/04/16 09:46:26;;;;;;;13.13;12.50;;;12.30;84.60;;;;;;4971557;28;20451;-74
2021/04/16 09:48:54;;;;;;;11.90;11.40;;;13.00;82.00;;;;;;4971539;28;20487;-74
2021/04/16 09:51:33;;;;;;;13.27;12.60;;;13.20;77.60;;;;;;4971532;28;20634;-75
2021/04/16 09:54:32;;;;;;;13.40;12.50;;;13.40;78.40;;;;;;4971709;28;20459;-75
2021/04/16 09:57:38;;;;;;;13.40;12.80;;;13.60;76.90;;;;;;4985679;28;20458;-75
2021/04/16 10:00:25;;;;;;;12.70;12.20;;;13.60;74.00;;;;;;4985782;28;20569;-74
2021/04/16 10:03:19;;;;;;;12.03;11.53;;;14.00;72.10;;;;;;4990142;28;20450;-74
2021/04/16 10:05:45;;;;;;;14.77;13.97;;;15.20;71.00;;;;;;4990598;28;20478;-74
2021/04/16 10:08:22;;;;;;;13.30;12.70;;;16.70;64.70;;;;;;4993616;28;20457;-74
2021/04/16 10:10:49;;;;;;;13.30;12.80;;;18.40;59.70;;;;;;4994176;28;20458;-74
2021/04/16 10:13:22;;;;;;;12.90;12.30;;;19.10;57.10;;;;;;4994221;28;20450;-75
2021/04/16 10:15:50;;;;;;;13.23;12.70;;;18.80;55.40;;;;;;4994152;28;20909;-74
2021/04/16 10:18:28;;;;;;;13.13;12.53;;;18.00;55.80;;;;;;4994024;28;20505;-75
2021/04/16 10:20:58;;;;;;;13.20;12.60;;;17.10;55.90;;;;;;4994256;28;21022;-75
2021/04/16 10:23:30;;;;;;;13.83;13.13;;;16.10;57.90;;;;;;4994255;28;20594;-74
2021/04/16 12:38:55;;;;;;;12.70;12.00;;;9.30;92.60;;;;;;4972510;28;20486;-73
2021/04/16 12:41:23;;;;;;;12.67;12.07;;;9.70;92.00;;;;;;4972309;28;20546;-73
2021/04/16 12:43:51;;;;;;;12.60;11.97;;;9.90;91.40;;;;;;4972649;28;20820;-74
2021/04/16 12:46:18;;;;;;;13.03;12.40;;;10.00;90.30;;;;;;4972666;28;20455;-74
2021/04/16 12:48:45;;;;;;;12.30;11.63;;;10.20;90.00;;;;;;4972327;28;20475;-74
2021/04/16 12:51:11;;;;;;;9.90;9.40;;;10.20;90.40;;;;;;4972210;28;20523;-74
2021/04/16 12:53:38;;;;;;;10.80;10.30;;;10.20;90.30;;;;;;4972343;28;20456;-74
2021/04/16 12:56:07;;;;;;;12.63;12.03;;;9.80;90.50;;;;;;4972408;28;20456;-74
2021/04/16 12:58:37;;;;;;;11.03;10.43;;;10.00;89.90;;;;;;4972267;28;20467;-74
2021/04/16 13:01:06;;;;;;;12.20;11.37;;;10.00;89.70;;;;;;4972407;28;20455;-74
2021/04/16 13:03:36;;;;;;;11.27;10.77;;;9.70;90.20;;;;;;4972271;28;20451;-75
2021/04/16 13:06:04;;;;;;;12.87;12.07;;;9.60;90.50;;;;;;4972419;28;20463;-75
2021/04/16 13:08:30;;;;;;;11.57;10.87;;;9.50;90.50;;;;;;4978367;28;20477;-74
2021/04/16 13:10:56;;;;;;;11.60;11.00;;;9.30;90.50;;;;;;4991418;28;20861;-75
2021/04/16 13:13:23;;;;;;;12.10;11.40;;;9.50;90.80;;;;;;4991457;28;20483;-74
2021/04/16 13:15:49;;;;;;;11.20;10.40;;;9.40;91.10;;;;;;4991568;28;20458;-74
2021/04/16 13:18:24;;;;;;;12.40;11.60;;;9.50;90.40;;;;;;4991509;28;20509;-74
2021/04/16 13:20:51;;;;;;;10.37;9.87;;;9.50;90.50;;;;;;4991599;28;20454;-75
2021/04/16 13:23:17;;;;;;;11.87;11.17;;;9.70;90.50;;;;;;4991467;28;20864;-74
2021/04/16 13:25:44;;;;;;;11.80;11.20;;;9.90;90.10;;;;;;4991358;28;20451;-74
2021/04/16 13:28:11;;;;;;;12.00;11.20;;;10.10;89.20;;;;;;4991413;28;20835;-74
2021/04/16 13:30:38;;;;;;;11.00;10.50;;;10.30;88.10;;;;;;4991422;28;20454;-74
2021/04/16 13:33:11;;;;;;;11.23;10.73;;;10.30;87.80;;;;;;4991062;28;21098;-75
2021/04/16 13:35:42;;;;;;;11.37;10.67;;;10.40;87.10;;;;;;4991047;28;20832;-74
2021/04/16 13:38:12;;;;;;;11.70;11.10;;;10.30;85.90;;;;;;4991209;28;20465;-74
2021/04/16 13:40:38;;;;;;;11.47;10.97;;;10.70;87.10;;;;;;4991196;28;20491;-73
2021/04/16 13:43:05;;;;;;;12.80;12.20;;;10.90;84.70;;;;;;4994540;28;20454;-73
2021/04/16 13:45:32;;;;;;;12.30;11.60;;;11.10;83.60;;;;;;4995151;28;20447;-74
2021/04/16 13:48:01;;;;;;;11.27;10.67;;;10.90;84.10;;;;;;4994876;28;20533;-74
2021/04/16 13:50:28;;;;;;;10.50;10.00;;;10.70;82.80;;;;;;4994854;28;20489;-75
2021/04/16 13:52:54;;;;;;;10.00;9.50;;;10.20;80.80;;;;;;4994990;28;20491;-74
2021/04/16 13:55:21;;;;;;;10.07;9.67;;;10.00;82.70;;;;;;4994907;28;20456;-73
2021/04/16 13:57:48;;;;;;;10.97;10.37;;;10.10;82.90;;;;;;4994983;28;20457;-74
2021/04/16 14:00:17;;;;;;;10.20;9.70;;;10.10;81.90;;;;;;4994836;28;20571;-74
2021/04/16 14:02:49;;;;;;;9.73;9.33;;;9.90;83.20;;;;;;4994860;28;20468;-75
2021/04/16 14:05:20;;;;;;;10.70;10.30;;;9.60;84.50;;;;;;4994517;28;20502;-75
2021/04/16 14:07:48;;;;;;;10.53;10.10;;;9.50;84.60;;;;;;4994846;28;20451;-75
2021/04/16 14:10:15;;;;;;;11.07;10.67;;;9.60;83.70;;;;;;4994859;28;20454;-75
2021/04/16 14:12:42;;;;;;;11.00;10.40;;;9.80;83.50;;;;;;4994804;28;20493;-74
2021/04/16 14:15:09;;;;;;;12.10;11.60;;;9.60;84.10;;;;;;4991787;28;20814;-74
2021/04/16 14:17:39;;;;;;;10.80;10.30;;;9.80;84.90;;;;;;4994230;28;20462;-74
2021/04/16 14:20:13;;;;;;;10.83;10.37;;;9.80;83.10;;;;;;4994319;28;20558;-77
2021/04/16 14:22:42;;;;;;;10.43;10.03;;;9.70;81.70;;;;;;4994522;28;20456;-74
2021/04/16 14:25:11;;;;;;;9.50;9.10;;;9.60;82.20;;;;;;4994077;28;20866;-73
2021/04/16 14:27:37;;;;;;;10.60;10.10;;;9.70;81.60;;;;;;4994290;28;20459;-74
2021/04/16 14:30:07;;;;;;;9.87;9.43;;;9.60;81.50;;;;;;4994175;28;20458;-74
2021/04/16 14:32:33;;;;;;;11.10;10.60;;;9.80;81.20;;;;;;4994268;28;20501;-73
2021/04/16 14:34:59;;;;;;;10.90;10.10;;;9.80;81.30;;;;;;4994107;28;20455;-74
2021/04/16 14:37:25;;;;;;;11.70;11.20;;;9.80;81.80;;;;;;4994202;28;20450;-74
2021/04/16 14:39:52;;;;;;;10.30;9.80;;;9.70;81.80;;;;;;4993907;28;20463;-74
2021/04/16 14:42:21;;;;;;;10.97;10.47;;;10.00;79.90;;;;;;4993823;28;20505;-74
2021/04/16 14:44:47;;;;;;;10.43;10.03;;;9.90;81.10;;;;;;4993926;28;20443;-74
2021/04/16 14:47:13;;;;;;;11.00;10.50;;;10.00;79.40;;;;;;4993613;28;20471;-74
2021/04/16 14:49:39;;;;;;;10.73;10.33;;;9.90;81.40;;;;;;4993681;28;20516;-74
2021/04/16 14:52:09;;;;;;;11.30;10.83;;;9.90;81.60;;;;;;4993453;28;21323;-74
2021/04/16 14:54:39;;;;;;;11.63;11.10;;;9.70;81.60;;;;;;4993910;28;20446;-73
2021/04/16 14:57:08;;;;;;;9.93;9.53;;;9.80;82.00;;;;;;4993592;28;21259;-73
2021/04/16 14:59:37;;;;;;;11.53;10.87;;;9.60;82.70;;;;;;4993701;28;21112;-73
2021/04/16 15:02:04;;;;;;;10.80;10.30;;;9.70;83.20;;;;;;4992215;28;20451;-74
2021/04/16 15:04:30;;;;;;;10.93;10.43;;;9.80;82.80;;;;;;4993967;28;20463;-74
2021/04/16 15:06:59;;;;;;;11.30;10.80;;;9.80;82.70;;;;;;4993816;28;20545;-74
2021/04/16 15:09:35;;;;;;;11.13;10.47;;;9.90;82.60;;;;;;4994034;28;20455;-73
2021/04/16 15:12:02;;;;;;;10.00;9.50;;;9.90;82.40;;;;;;4993689;28;20490;-74
2021/04/16 15:14:31;;;;;;;11.10;10.60;;;9.90;82.50;;;;;;4993726;28;20477;-74
2021/04/16 15:16:58;;;;;;;11.80;11.30;;;9.70;84.10;;;;;;4993469;28;20452;-74
2021/04/16 15:19:36;;;;;;;10.70;10.30;;;9.60;84.50;;;;;;4993591;28;20447;-73
2021/04/16 15:22:05;;;;;;;10.27;9.60;;;9.30;85.10;;;;;;4993846;28;20453;-74
2021/04/16 15:24:32;;;;;;;11.10;10.60;;;9.10;85.80;;;;;;4993739;28;20458;-73
2021/04/16 15:26:59;;;;;;;10.53;10.07;;;9.00;85.80;;;;;;4993614;28;20451;-71
2021/04/16 15:29:33;;;;;;;10.57;10.13;;;8.80;87.10;;;;;;4993870;28;21138;-74
2021/04/16 15:31:59;;;;;;;10.33;9.83;;;8.80;87.60;;;;;;4993302;28;20489;-74
2021/04/16 15:48:02;;;;;;;11.27;10.57;;;8.50;89.60;;;;;;4994015;28;20450;-72
2021/04/16 15:50:32;;;;;;;11.20;10.60;;;8.50;90.10;;;;;;4993723;28;20598;-72
2021/04/16 15:52:58;;;;;;;10.97;10.37;;;8.60;90.40;;;;;;4993653;28;20517;-71
2021/04/16 15:55:25;;;;;;;12.10;11.50;;;8.60;90.30;;;;;;4993197;28;20980;-72
2021/04/16 15:57:51;;;;;;;11.90;11.30;;;8.40;90.40;;;;;;4992959;28;20455;-72
2021/04/16 16:00:22;;;;;;;12.27;11.67;;;8.40;90.60;;;;;;4992728;28;20459;-73
2021/04/16 16:02:49;;;;;;;11.80;11.10;;;8.40;90.70;;;;;;4992711;28;20454;-72
2021/04/16 16:05:16;;;;;;;11.67;11.07;;;8.50;90.70;;;;;;4992362;28;20455;-73
2021/04/16 16:07:43;;;;;;;12.33;11.73;;;8.60;90.80;;;;;;4992522;28;20450;-73
2021/04/16 16:10:11;;;;;;;10.50;10.00;;;8.50;90.60;;;;;;4992523;28;20458;-73
2021/04/16 16:12:40;;;;;;;10.87;10.37;;;8.40;91.20;;;;;;4992316;28;21019;-73
2021/04/16 16:15:15;;;;;;;11.60;11.00;;;8.40;91.70;;;;;;4992687;28;20466;-73
2021/04/16 16:17:43;;;;;;;11.40;10.90;;;8.40;92.30;;;;;;4992365;28;20530;-72
2021/04/16 16:20:13;;;;;;;10.90;10.40;;;8.20;93.30;;;;;;4992142;28;20458;-73
2021/04/16 16:22:40;;;;;;;11.73;11.13;;;8.10;93.90;;;;;;4992088;28;20601;-72
2021/04/16 16:25:07;;;;;;;11.53;10.97;;;8.10;94.30;;;;;;4991345;28;20505;-73
2021/04/16 16:27:35;;;;;;;12.37;11.70;;;8.20;94.60;;;;;;4990971;28;20559;-73
2021/04/16 16:30:03;;;;;;;12.73;11.83;;;8.10;94.90;;;;;;4990873;28;20786;-72
2021/04/16 16:32:32;;;;;;;12.77;12.10;;;8.00;95.10;;;;;;4991384;28;20485;-73
2021/04/16 16:34:59;;;;;;;12.20;11.60;;;7.90;95.50;;;;;;4992051;28;20449;-72
2021/04/16 16:37:26;;;;;;;12.23;11.63;;;7.80;95.70;;;;;;4991972;28;20458;-72
2021/04/16 16:39:53;;;;;;;12.47;11.87;;;7.70;96.00;;;;;;4990813;28;20443;-72
2021/04/16 16:42:25;;;;;;;13.47;12.67;;;7.50;96.50;;;;;;4990529;28;20469;-74
2021/04/16 16:44:52;;;;;;;11.80;11.20;;;7.60;96.70;;;;;;4990587;28;20948;-73
2021/04/16 16:47:19;;;;;;;12.17;11.57;;;7.70;96.70;;;;;;4990281;28;20462;-72
2021/04/16 16:49:45;;;;;;;11.70;11.00;;;7.70;96.90;;;;;;4990281;28;20482;-73
2021/04/16 16:52:13;;;;;;;11.60;11.07;;;7.60;97.10;;;;;;4990548;28;20489;-71
2021/04/16 16:54:39;;;;;;;11.83;11.23;;;7.50;97.20;;;;;;4990525;28;20447;-72
2021/04/16 16:57:07;;;;;;;11.73;11.23;;;7.40;97.60;;;;;;4990596;28;20465;-71
2021/04/16 16:59:37;;;;;;;12.20;11.60;;;7.30;97.80;;;;;;4990544;28;20813;-72
2021/04/16 17:02:04;;;;;;;11.23;10.63;;;7.20;98.10;;;;;;4987548;28;20466;-72
2021/04/16 17:04:31;;;;;;;11.47;10.80;;;7.30;98.20;;;;;;4989793;28;20453;-72
2021/04/16 17:06:57;;;;;;;12.30;11.80;;;7.30;98.20;;;;;;4990483;28;20462;-72
2021/04/16 17:09:24;;;;;;;13.17;12.27;;;7.40;98.10;;;;;;4991314;28;20458;-72
2021/04/16 17:11:51;;;;;;;11.13;10.57;;;7.30;98.10;;;;;;4991093;28;20553;-72
2021/04/16 17:14:21;;;;;;;12.10;11.50;;;7.20;98.30;;;;;;4991234;28;20454;-72
2021/04/16 17:16:47;;;;;;;11.47;10.87;;;7.20;98.60;;;;;;4992334;28;20517;-72
2021/04/16 17:19:13;;;;;;;11.47;10.87;;;7.20;98.80;;;;;;4995347;28;20479;-72
2021/04/16 17:21:40;;;;;;;11.33;10.73;;;7.20;98.80;;;;;;4995188;28;20461;-72
2021/04/16 17:24:10;;;;;;;11.00;10.50;;;7.30;99.00;;;;;;4995425;28;20512;-72
2021/04/16 17:26:39;;;;;;;11.33;10.83;;;7.20;99.20;;;;;;4995025;28;20470;-71
2021/04/16 17:29:08;;;;;;;12.30;11.70;;;7.10;99.40;;;;;;4994978;28;20912;-72
2021/04/16 17:31:35;;;;;;;10.70;10.10;;;7.20;99.50;;;;;;4994840;28;20458;-72
2021/04/16 17:34:01;;;;;;;12.10;11.30;;;7.10;99.50;;;;;;4995134;28;20503;-73
2021/04/16 17:36:27;;;;;;;11.00;10.40;;;7.10;99.60;;;;;;4995047;28;20469;-71
2021/04/16 17:38:53;;;;;;;10.37;9.87;;;7.10;99.50;;;;;;4994740;28;20508;-72
2021/04/16 17:41:25;;;;;;;11.70;11.00;;;7.00;99.40;;;;;;4994998;28;20456;-71
2021/04/16 17:43:52;;;;;;;11.80;11.10;;;7.00;99.50;;;;;;4994808;28;20461;-72
2021/04/16 17:46:20;;;;;;;12.40;11.70;;;7.00;99.50;;;;;;4994930;28;20473;-72
2021/04/16 17:48:46;;;;;;;12.07;11.27;;;7.00;99.70;;;;;;4994717;28;20484;-72
2021/04/16 17:51:21;;;;;;;10.63;10.13;;;6.90;99.80;;;;;;4994722;28;20454;-72
2021/04/16 17:53:47;;;;;;;11.07;10.47;;;7.10;99.90;;;;;;4994679;28;20493;-72
2021/04/16 17:56:13;;;;;;;11.00;10.43;;;6.90;99.60;;;;;;4994678;28;20450;-72
2021/04/16 17:58:40;;;;;;;11.20;10.60;;;6.90;99.80;;;;;;4994482;28;20459;-72
2021/04/16 18:01:11;;;;;;;12.00;11.40;;;6.90;99.70;;;;;;4994469;28;20470;-72
2021/04/16 18:03:38;;;;;;;11.17;10.60;;;6.90;99.80;;;;;;4994562;28;20457;-72